Aérodrome :
LOGIN :

S'inscrire | Disclaimer

   EN    FR    IT 

 










Légende :    VFR   VFR Marginal   IFR   IFR Intensif   IFR Très Intensif
Visi : 
Plafond : 
>= 8 km
>= 3000ft
5 à 8 km
1000 à 3000 ft
1500m à 5 km
500 à 1000 ft
800 à 1500m
200 à 500 ft
< 800m
< 200 ft
Symboles :   Orages  Brouillard  Fortes neiges  Fortes précipitations  Vent > 20 kt
SIGMETs :   Divers  Orages  Givrage  Turbulence  Onde Orograph.  Cendres Volcan.







- Altitude de l'aérodrome : 1363 ft


ETIC - Grafenwohr Army Air Field

DERNIER METAR :
  • 211256Z AUTO 20003KT 9999 CLR 14/M03 A3049 RMK AO2 SLP340 T01431031 FZRANO $

METARs EXPIRÉS :
  • 211156Z AUTO 00000KT 9999 CLR 13/M05 A3051 RMK AO2 SLP349 T01281048 10130 21042 57015 FZRANO $
  • 211056Z AUTO 00000KT 9999 CLR 12/M03 A3053 RMK AO2 SLP356 T01201034 FZRANO $

TAF TAF ETIC
Valide du 21 à 12h jusqu'au 22 à 18h UTC


211200Z 2112/2218 VRB06KT 9999 SKC QNH3048INS
BECMG 2210/2211 10010KT 9999 FEW030 QNH3038INS TX14/2115Z TNM04/2203Z
Pas de NOTAMs connus pour ce terrain.



MET'MAP, la Météo Aéronautique d'un coup d'oeil ! - Copyright ORBIFLY Décembre 2007 - Disclaimer

ORBIFLY MET'MAP TEAM :

Programmation & Développement : Alexandra Zaïnal
Conception & Développement : Baudouin d'Aumeries
Co-Programmation & Développement : Marc-Olivier Méhu
Soutien technique & logistique : Manuel Goepfert

Contact : metmap@orbifly.com




SOURCES & CREDITS :

   NOAA